sensor_id;sensor_type;location;lat;lon;timestamp;temperature;humidity
21417;DHT22;10869;52.238;10.716;2023-03-01T04:02:01;-3.20;99.90
21417;DHT22;10869;52.238;10.716;2023-03-01T04:04:27;-3.20;99.90
21417;DHT22;10869;52.238;10.716;2023-03-01T04:06:53;-3.10;99.90
21417;DHT22;10869;52.238;10.716;2023-03-01T04:09:20;-3.10;99.90
21417;DHT22;10869;52.238;10.716;2023-03-01T04:11:47;-3.00;99.90
21417;DHT22;10869;52.238;10.716;2023-03-01T04:14:13;-3.00;99.90
21417;DHT22;10869;52.238;10.716;2023-03-01T04:16:40;-3.00;99.90
21417;DHT22;10869;52.238;10.716;2023-03-01T04:19:06;-2.90;99.90
21417;DHT22;10869;52.238;10.716;2023-03-01T04:21:32;-2.90;99.90
21417;DHT22;10869;52.238;10.716;2023-03-01T04:23:59;-2.90;99.90
21417;DHT22;10869;52.238;10.716;2023-03-01T04:26:31;-2.90;99.90
21417;DHT22;10869;52.238;10.716;2023-03-01T04:29:03;-2.90;99.90
21417;DHT22;10869;52.238;10.716;2023-03-01T04:31:30;-2.80;99.90
21417;DHT22;10869;52.238;10.716;2023-03-01T04:33:57;-2.80;99.90
21417;DHT22;10869;52.238;10.716;2023-03-01T04:36:27;-2.80;99.90
21417;DHT22;10869;52.238;10.716;2023-03-01T04:38:57;-2.70;99.90
21417;DHT22;10869;52.238;10.716;2023-03-01T04:41:24;-2.70;99.90
21417;DHT22;10869;52.238;10.716;2023-03-01T04:43:51;-2.60;99.90
21417;DHT22;10869;52.238;10.716;2023-03-01T04:46:18;-2.60;99.90
21417;DHT22;10869;52.238;10.716;2023-03-01T04:48:47;-2.60;99.90
21417;DHT22;10869;52.238;10.716;2023-03-01T04:51:16;-2.60;99.90
21417;DHT22;10869;52.238;10.716;2023-03-01T04:53:45;-2.60;99.90
21417;DHT22;10869;52.238;10.716;2023-03-01T04:56:15;-2.60;99.90
21417;DHT22;10869;52.238;10.716;2023-03-01T04:58:45;-2.60;99.90
21417;DHT22;10869;52.238;10.716;2023-03-01T05:01:18;-2.60;99.90
21417;DHT22;10869;52.238;10.716;2023-03-01T05:03:50;-2.70;99.90
21417;DHT22;10869;52.238;10.716;2023-03-01T05:06:21;-2.70;99.90
21417;DHT22;10869;52.238;10.716;2023-03-01T05:08:48;-2.70;99.90
21417;DHT22;10869;52.238;10.716;2023-03-01T05:11:14;-2.70;99.90
21417;DHT22;10869;52.238;10.716;2023-03-01T05:17:06;-2.70;99.90
21417;DHT22;10869;52.238;10.716;2023-03-01T05:22:09;-2.70;99.90
21417;DHT22;10869;52.238;10.716;2023-03-01T05:24:37;-2.70;99.90
21417;DHT22;10869;52.238;10.716;2023-03-01T05:27:04;-2.60;99.90
21417;DHT22;10869;52.238;10.716;2023-03-01T05:29:31;-2.60;99.90
21417;DHT22;10869;52.238;10.716;2023-03-01T05:32:01;-2.60;99.90
21417;DHT22;10869;52.238;10.716;2023-03-01T05:34:31;-2.60;99.90
21417;DHT22;10869;52.238;10.716;2023-03-01T05:37:01;-2.50;99.90
21417;DHT22;10869;52.238;10.716;2023-03-01T05:39:28;-2.50;99.90
21417;DHT22;10869;52.238;10.716;2023-03-01T05:42:01;-2.60;99.90
21417;DHT22;10869;52.238;10.716;2023-03-01T05:44:28;-2.50;99.90
21417;DHT22;10869;52.238;10.716;2023-03-01T05:46:54;-2.50;99.90
21417;DHT22;10869;52.238;10.716;2023-03-01T05:49:21;-2.50;99.90
21417;DHT22;10869;52.238;10.716;2023-03-01T05:51:51;-2.50;99.90
21417;DHT22;10869;52.238;10.716;2023-03-01T05:54:17;-2.40;99.90
21417;DHT22;10869;52.238;10.716;2023-03-01T05:56:44;-2.40;99.90
21417;DHT22;10869;52.238;10.716;2023-03-01T05:59:10;-2.40;99.90
21417;DHT22;10869;52.238;10.716;2023-03-01T06:01:36;-2.40;99.90
21417;DHT22;10869;52.238;10.716;2023-03-01T06:04:03;-2.30;99.90
21417;DHT22;10869;52.238;10.716;2023-03-01T06:06:30;-2.30;99.90
21417;DHT22;10869;52.238;10.716;2023-03-01T06:09:11;-2.30;99.90
21417;DHT22;10869;52.238;10.716;2023-03-01T06:11:37;-2.30;99.90
21417;DHT22;10869;52.238;10.716;2023-03-01T06:14:04;-2.40;99.90
21417;DHT22;10869;52.238;10.716;2023-03-01T06:16:31;-2.40;99.90
21417;DHT22;10869;52.238;10.716;2023-03-01T06:18:57;-2.40;99.90
21417;DHT22;10869;52.238;10.716;2023-03-01T06:24:45;-2.40;99.90
21417;DHT22;10869;52.238;10.716;2023-03-01T06:30:47;-2.30;99.90
21417;DHT22;10869;52.238;10.716;2023-03-01T06:33:13;-2.40;99.90
21417;DHT22;10869;52.238;10.716;2023-03-01T06:35:39;-2.30;99.90
21417;DHT22;10869;52.238;10.716;2023-03-01T06:38:05;-2.30;99.90
21417;DHT22;10869;52.238;10.716;2023-03-01T06:43:53;-2.30;99.90
21417;DHT22;10869;52.238;10.716;2023-03-01T06:49:47;-2.20;99.90
21417;DHT22;10869;52.238;10.716;2023-03-01T06:52:13;-2.00;99.90
21417;DHT22;10869;52.238;10.716;2023-03-01T06:54:38;-1.90;99.90
21417;DHT22;10869;52.238;10.716;2023-03-01T06:57:04;-1.80;99.90
21417;DHT22;10869;52.238;10.716;2023-03-01T06:59:30;-1.60;99.90
21417;DHT22;10869;52.238;10.716;2023-03-01T07:02:29;-1.50;99.90
21417;DHT22;10869;52.238;10.716;2023-03-01T07:04:55;-1.30;99.90
21417;DHT22;10869;52.238;10.716;2023-03-01T07:07:21;-1.20;99.90
21417;DHT22;10869;52.238;10.716;2023-03-01T07:09:48;-1.00;99.90
21417;DHT22;10869;52.238;10.716;2023-03-01T07:15:43;-0.70;99.90
21417;DHT22;10869;52.238;10.716;2023-03-01T07:24:55;-0.40;99.90
21417;DHT22;10869;52.238;10.716;2023-03-01T07:27:20;-0.30;99.90
21417;DHT22;10869;52.238;10.716;2023-03-01T07:29:46;-0.30;99.90
21417;DHT22;10869;52.238;10.716;2023-03-01T07:32:12;-0.20;99.90
21417;DHT22;10869;52.238;10.716;2023-03-01T07:34:41;-0.10;99.90
21417;DHT22;10869;52.238;10.716;2023-03-01T07:37:06;0.00;99.90
21417;DHT22;10869;52.238;10.716;2023-03-01T07:39:32;0.00;99.90
21417;DHT22;10869;52.238;10.716;2023-03-01T07:41:58;0.10;99.90
21417;DHT22;10869;52.238;10.716;2023-03-01T07:44:24;0.20;99.90
21417;DHT22;10869;52.238;10.716;2023-03-01T07:46:49;0.30;99.90
21417;DHT22;10869;52.238;10.716;2023-03-01T07:49:17;0.50;99.90
21417;DHT22;10869;52.238;10.716;2023-03-01T07:51:43;0.60;99.90
21417;DHT22;10869;52.238;10.716;2023-03-01T07:54:09;0.70;99.90
21417;DHT22;10869;52.238;10.716;2023-03-01T07:56:35;0.80;99.90
21417;DHT22;10869;52.238;10.716;2023-03-01T07:59:00;0.90;99.90
21417;DHT22;10869;52.238;10.716;2023-03-01T08:01:26;1.00;99.90
21417;DHT22;10869;52.238;10.716;2023-03-01T08:03:52;1.00;99.90
21417;DHT22;10869;52.238;10.716;2023-03-01T08:09:40;1.10;99.90
21417;DHT22;10869;52.238;10.716;2023-03-01T08:12:06;1.10;99.90
21417;DHT22;10869;52.238;10.716;2023-03-01T08:14:32;1.20;99.90
21417;DHT22;10869;52.238;10.716;2023-03-01T08:16:58;1.20;99.90
21417;DHT22;10869;52.238;10.716;2023-03-01T08:19:24;1.30;99.90
21417;DHT22;10869;52.238;10.716;2023-03-01T08:25:12;1.60;99.90
21417;DHT22;10869;52.238;10.716;2023-03-01T08:31:00;1.80;99.90
21417;DHT22;10869;52.238;10.716;2023-03-01T08:33:26;2.00;99.90
21417;DHT22;10869;52.238;10.716;2023-03-01T08:39:15;2.10;99.90
21417;DHT22;10869;52.238;10.716;2023-03-01T08:41:42;2.30;99.90
21417;DHT22;10869;52.238;10.716;2023-03-01T08:44:09;2.30;99.90
21417;DHT22;10869;52.238;10.716;2023-03-01T08:46:37;2.40;99.90
21417;DHT22;10869;52.238;10.716;2023-03-01T08:49:16;2.50;99.90
21417;DHT22;10869;52.238;10.716;2023-03-01T08:51:43;2.60;99.90
21417;DHT22;10869;52.238;10.716;2023-03-01T08:54:17;2.60;99.90
21417;DHT22;10869;52.238;10.716;2023-03-01T08:56:44;2.70;99.90
21417;DHT22;10869;52.238;10.716;2023-03-01T08:59:11;2.90;99.90
21417;DHT22;10869;52.238;10.716;2023-03-01T09:04:58;3.20;99.90
21417;DHT22;10869;52.238;10.716;2023-03-01T09:07:25;3.50;99.90
21417;DHT22;10869;52.238;10.716;2023-03-01T09:09:54;3.60;99.90
21417;DHT22;10869;52.238;10.716;2023-03-01T09:12:21;3.80;99.90
21417;DHT22;10869;52.238;10.716;2023-03-01T09:14:47;3.90;99.90
21417;DHT22;10869;52.238;10.716;2023-03-01T09:17:12;4.00;99.90
21417;DHT22;10869;52.238;10.716;2023-03-01T09:19:38;4.20;99.90
21417;DHT22;10869;52.238;10.716;2023-03-01T09:25:27;4.40;99.90
21417;DHT22;10869;52.238;10.716;2023-03-01T09:27:54;4.30;99.90
21417;DHT22;10869;52.238;10.716;2023-03-01T09:33:44;4.60;99.90
21417;DHT22;10869;52.238;10.716;2023-03-01T09:36:17;4.70;99.90
21417;DHT22;10869;52.238;10.716;2023-03-01T09:38:43;4.80;99.90
21417;DHT22;10869;52.238;10.716;2023-03-01T09:43:50;4.70;99.90
21417;DHT22;10869;52.238;10.716;2023-03-01T09:46:21;4.80;99.90
21417;DHT22;10869;52.238;10.716;2023-03-01T09:49:01;4.80;99.90
21417;DHT22;10869;52.238;10.716;2023-03-01T09:54:54;5.00;99.90
21417;DHT22;10869;52.238;10.716;2023-03-01T10:06:20;5.40;99.90
21417;DHT22;10869;52.238;10.716;2023-03-01T10:08:56;5.50;99.90
21417;DHT22;10869;52.238;10.716;2023-03-01T10:11:31;5.60;99.90
21417;DHT22;10869;52.238;10.716;2023-03-01T10:20:30;5.60;99.20
21417;DHT22;10869;52.238;10.716;2023-03-01T10:26:44;5.80;99.40
21417;DHT22;10869;52.238;10.716;2023-03-01T10:32:37;6.30;95.50
21417;DHT22;10869;52.238;10.716;2023-03-01T10:38:25;6.30;94.10
21417;DHT22;10869;52.238;10.716;2023-03-01T10:41:08;6.30;94.10
21417;DHT22;10869;52.238;10.716;2023-03-01T10:47:00;6.40;93.30
21417;DHT22;10869;52.238;10.716;2023-03-01T10:55:38;6.60;92.60
21417;DHT22;10869;52.238;10.716;2023-03-01T11:01:03;6.70;92.40
21417;DHT22;10869;52.238;10.716;2023-03-01T11:03:42;6.80;94.80
21417;DHT22;10869;52.238;10.716;2023-03-01T11:17:31;7.10;93.60
21417;DHT22;10869;52.238;10.716;2023-03-01T11:20:26;7.20;93.60
21417;DHT22;10869;52.238;10.716;2023-03-01T11:22:59;7.30;93.30
21417;DHT22;10869;52.238;10.716;2023-03-01T11:25:39;7.20;92.10
21417;DHT22;10869;52.238;10.716;2023-03-01T11:28:14;7.10;93.40
21417;DHT22;10869;52.238;10.716;2023-03-01T11:31:04;7.00;91.30
21417;DHT22;10869;52.238;10.716;2023-03-01T11:44:52;7.50;92.00
21417;DHT22;10869;52.238;10.716;2023-03-01T11:53:34;7.60;91.00
21417;DHT22;10869;52.238;10.716;2023-03-01T11:56:23;7.50;90.50
21417;DHT22;10869;52.238;10.716;2023-03-01T12:21:35;7.90;92.40
21417;DHT22;10869;52.238;10.716;2023-03-01T12:27:24;8.00;91.40
21417;DHT22;10869;52.238;10.716;2023-03-01T12:30:13;8.20;91.20
21417;DHT22;10869;52.238;10.716;2023-03-01T12:33:12;8.20;90.90
21417;DHT22;10869;52.238;10.716;2023-03-01T12:44:24;8.30;91.10
21417;DHT22;10869;52.238;10.716;2023-03-01T12:50:21;8.30;88.70
21417;DHT22;10869;52.238;10.716;2023-03-01T12:52:49;8.30;89.60
21417;DHT22;10869;52.238;10.716;2023-03-01T13:01:08;8.30;89.10
21417;DHT22;10869;52.238;10.716;2023-03-01T13:15:36;8.20;90.00
21417;DHT22;10869;52.238;10.716;2023-03-01T13:23:24;8.10;89.50
21417;DHT22;10869;52.238;10.716;2023-03-01T13:33:53;8.10;88.70
21417;DHT22;10869;52.238;10.716;2023-03-01T13:46:56;8.00;90.10
21417;DHT22;10869;52.238;10.716;2023-03-01T13:49:26;8.00;90.70
21417;DHT22;10869;52.238;10.716;2023-03-01T13:51:53;7.90;90.30
21417;DHT22;10869;52.238;10.716;2023-03-01T13:54:29;7.80;90.90
21417;DHT22;10869;52.238;10.716;2023-03-01T14:00:30;7.80;91.50
21417;DHT22;10869;52.238;10.716;2023-03-01T14:05:40;7.80;90.90
21417;DHT22;10869;52.238;10.716;2023-03-01T14:08:21;7.90;90.70
21417;DHT22;10869;52.238;10.716;2023-03-01T14:21:34;7.60;90.40
21417;DHT22;10869;52.238;10.716;2023-03-01T14:27:33;7.50;90.10
21417;DHT22;10869;52.238;10.716;2023-03-01T14:30:26;7.50;90.70
21417;DHT22;10869;52.238;10.716;2023-03-01T14:32:58;7.50;90.40
21417;DHT22;10869;52.238;10.716;2023-03-01T14:35:27;7.60;91.00
21417;DHT22;10869;52.238;10.716;2023-03-01T14:37:53;7.60;90.30
21417;DHT22;10869;52.238;10.716;2023-03-01T14:40:33;7.50;89.70
21417;DHT22;10869;52.238;10.716;2023-03-01T14:43:08;7.40;90.10
21417;DHT22;10869;52.238;10.716;2023-03-01T14:45:35;7.30;90.30
21417;DHT22;10869;52.238;10.716;2023-03-01T14:48:03;7.30;90.50
21417;DHT22;10869;52.238;10.716;2023-03-01T14:50:32;7.30;90.40
21417;DHT22;10869;52.238;10.716;2023-03-01T14:53:04;7.30;90.60
21417;DHT22;10869;52.238;10.716;2023-03-01T14:55:34;7.30;91.20
21417;DHT22;10869;52.238;10.716;2023-03-01T14:58:04;7.20;90.80
21417;DHT22;10869;52.238;10.716;2023-03-01T15:00:32;7.30;90.40
21417;DHT22;10869;52.238;10.716;2023-03-01T15:03:05;7.30;90.20
21417;DHT22;10869;52.238;10.716;2023-03-01T15:05:35;7.30;90.30
21417;DHT22;10869;52.238;10.716;2023-03-01T15:08:18;7.20;90.00
21417;DHT22;10869;52.238;10.716;2023-03-01T15:13:34;7.20;89.80
21417;DHT22;10869;52.238;10.716;2023-03-01T15:22:52;7.10;90.00
21417;DHT22;10869;52.238;10.716;2023-03-01T15:28:48;7.00;90.20
21417;DHT22;10869;52.238;10.716;2023-03-01T15:31:24;6.90;90.20
21417;DHT22;10869;52.238;10.716;2023-03-01T15:33:51;6.90;90.70
21417;DHT22;10869;52.238;10.716;2023-03-01T15:39:41;6.80;90.70
21417;DHT22;10869;52.238;10.716;2023-03-01T15:45:39;6.80;91.90
21417;DHT22;10869;52.238;10.716;2023-03-01T15:52:10;6.60;92.40
21417;DHT22;10869;52.238;10.716;2023-03-01T15:58:10;6.40;92.10
21417;DHT22;10869;52.238;10.716;2023-03-01T16:00:37;6.30;92.80
21417;DHT22;10869;52.238;10.716;2023-03-01T16:03:05;6.20;93.40
21417;DHT22;10869;52.238;10.716;2023-03-01T16:05:34;6.10;94.10
21417;DHT22;10869;52.238;10.716;2023-03-01T16:08:02;6.00;94.10
21417;DHT22;10869;52.238;10.716;2023-03-01T16:13:50;5.80;93.70
21417;DHT22;10869;52.238;10.716;2023-03-01T16:16:16;5.60;93.90
21417;DHT22;10869;52.238;10.716;2023-03-01T16:18:43;5.50;94.30
21417;DHT22;10869;52.238;10.716;2023-03-01T16:21:28;5.40;94.70
21417;DHT22;10869;52.238;10.716;2023-03-01T16:23:53;5.30;95.40
21417;DHT22;10869;52.238;10.716;2023-03-01T16:26:19;5.20;95.40
21417;DHT22;10869;52.238;10.716;2023-03-01T16:28:45;5.10;95.80
21417;DHT22;10869;52.238;10.716;2023-03-01T16:31:16;4.90;96.00
21417;DHT22;10869;52.238;10.716;2023-03-01T16:33:42;4.80;96.30
21417;DHT22;10869;52.238;10.716;2023-03-01T16:36:15;4.70;96.50
21417;DHT22;10869;52.238;10.716;2023-03-01T16:38:43;4.60;96.80
21417;DHT22;10869;52.238;10.716;2023-03-01T16:44:31;4.30;97.20
21417;DHT22;10869;52.238;10.716;2023-03-01T16:46:57;4.20;97.20
21417;DHT22;10869;52.238;10.716;2023-03-01T16:49:26;4.00;97.90
21417;DHT22;10869;52.238;10.716;2023-03-01T16:51:55;3.90;98.10
21417;DHT22;10869;52.238;10.716;2023-03-01T16:54:21;3.80;98.40
21417;DHT22;10869;52.238;10.716;2023-03-01T16:56:47;3.70;98.40
21417;DHT22;10869;52.238;10.716;2023-03-01T16:59:13;3.60;98.50
21417;DHT22;10869;52.238;10.716;2023-03-01T17:01:39;3.50;98.70
21417;DHT22;10869;52.238;10.716;2023-03-01T17:04:08;3.40;99.00
21417;DHT22;10869;52.238;10.716;2023-03-01T17:06:35;3.30;99.50
21417;DHT22;10869;52.238;10.716;2023-03-01T17:12:23;3.00;99.90
21417;DHT22;10869;52.238;10.716;2023-03-01T17:14:48;2.80;99.90
21417;DHT22;10869;52.238;10.716;2023-03-01T17:17:18;2.70;99.90
21417;DHT22;10869;52.238;10.716;2023-03-01T17:19:49;2.70;99.90
21417;DHT22;10869;52.238;10.716;2023-03-01T17:22:15;2.60;99.90
21417;DHT22;10869;52.238;10.716;2023-03-01T17:24:42;2.60;99.90
21417;DHT22;10869;52.238;10.716;2023-03-01T17:27:12;2.60;99.90
21417;DHT22;10869;52.238;10.716;2023-03-01T17:29:40;2.60;99.90
21417;DHT22;10869;52.238;10.716;2023-03-01T17:32:06;2.50;99.90
21417;DHT22;10869;52.238;10.716;2023-03-01T17:34:33;2.40;99.90
21417;DHT22;10869;52.238;10.716;2023-03-01T17:36:59;2.30;99.90
21417;DHT22;10869;52.238;10.716;2023-03-01T17:42:47;2.00;99.90
21417;DHT22;10869;52.238;10.716;2023-03-01T17:45:12;1.90;99.90
21417;DHT22;10869;52.238;10.716;2023-03-01T17:47:38;1.80;99.90
21417;DHT22;10869;52.238;10.716;2023-03-01T17:50:04;1.60;99.90
21417;DHT22;10869;52.238;10.716;2023-03-01T17:52:32;1.50;99.90
21417;DHT22;10869;52.238;10.716;2023-03-01T17:54:58;1.40;99.90
21417;DHT22;10869;52.238;10.716;2023-03-01T17:57:24;1.30;99.90
21417;DHT22;10869;52.238;10.716;2023-03-01T17:59:49;1.30;99.90
21417;DHT22;10869;52.238;10.716;2023-03-01T18:02:15;1.20;99.90
21417;DHT22;10869;52.238;10.716;2023-03-01T18:04:41;1.10;99.90
21417;DHT22;10869;52.238;10.716;2023-03-01T18:07:06;1.10;99.90
21417;DHT22;10869;52.238;10.716;2023-03-01T18:09:32;1.10;99.90
21417;DHT22;10869;52.238;10.716;2023-03-01T18:11:58;1.00;99.90
21417;DHT22;10869;52.238;10.716;2023-03-01T18:14:24;1.00;99.90
21417;DHT22;10869;52.238;10.716;2023-03-01T18:16:50;0.90;99.90
21417;DHT22;10869;52.238;10.716;2023-03-01T18:19:16;0.90;99.90
21417;DHT22;10869;52.238;10.716;2023-03-01T18:21:42;0.90;99.90
21417;DHT22;10869;52.238;10.716;2023-03-01T18:24:08;0.80;99.90
21417;DHT22;10869;52.238;10.716;2023-03-01T18:26:34;0.80;99.90
21417;DHT22;10869;52.238;10.716;2023-03-01T18:32:22;0.80;99.90
21417;DHT22;10869;52.238;10.716;2023-03-01T18:34:48;0.80;99.90
21417;DHT22;10869;52.238;10.716;2023-03-01T18:40:36;0.80;99.90
21417;DHT22;10869;52.238;10.716;2023-03-01T18:43:05;0.80;99.90
21417;DHT22;10869;52.238;10.716;2023-03-01T18:45:35;0.80;99.90
21417;DHT22;10869;52.238;10.716;2023-03-01T18:48:06;0.80;99.90
21417;DHT22;10869;52.238;10.716;2023-03-01T18:50:35;0.80;99.90
21417;DHT22;10869;52.238;10.716;2023-03-01T18:53:15;0.80;99.90
21417;DHT22;10869;52.238;10.716;2023-03-01T18:55:41;0.90;99.90
21417;DHT22;10869;52.238;10.716;2023-03-01T18:58:11;0.90;99.90
21417;DHT22;10869;52.238;10.716;2023-03-01T19:00:42;0.90;99.90
21417;DHT22;10869;52.238;10.716;2023-03-01T19:03:14;0.90;99.90
21417;DHT22;10869;52.238;10.716;2023-03-01T19:05:44;0.90;99.90
21417;DHT22;10869;52.238;10.716;2023-03-01T19:08:13;0.90;99.90
21417;DHT22;10869;52.238;10.716;2023-03-01T19:10:39;0.90;99.90
21417;DHT22;10869;52.238;10.716;2023-03-01T19:13:05;0.80;99.90
21417;DHT22;10869;52.238;10.716;2023-03-01T19:15:31;0.80;99.90
21417;DHT22;10869;52.238;10.716;2023-03-01T19:21:21;0.80;99.90
21417;DHT22;10869;52.238;10.716;2023-03-01T19:27:11;0.90;99.90
21417;DHT22;10869;52.238;10.716;2023-03-01T19:29:40;0.80;99.90
21417;DHT22;10869;52.238;10.716;2023-03-01T19:35:28;0.70;99.90
21417;DHT22;10869;52.238;10.716;2023-03-01T19:37:54;0.70;99.90
21417;DHT22;10869;52.238;10.716;2023-03-01T19:40:20;0.70;99.90
21417;DHT22;10869;52.238;10.716;2023-03-01T19:42:45;0.70;99.90
21417;DHT22;10869;52.238;10.716;2023-03-01T19:45:11;0.60;99.90
21417;DHT22;10869;52.238;10.716;2023-03-01T19:50:59;0.70;99.90
21417;DHT22;10869;52.238;10.716;2023-03-01T19:53:25;0.70;99.90
21417;DHT22;10869;52.238;10.716;2023-03-01T19:55:59;0.60;99.90
21417;DHT22;10869;52.238;10.716;2023-03-01T19:58:26;0.60;99.90
21417;DHT22;10869;52.238;10.716;2023-03-01T20:00:53;0.70;99.90
21417;DHT22;10869;52.238;10.716;2023-03-01T20:03:30;0.70;99.90
21417;DHT22;10869;52.238;10.716;2023-03-01T20:05:57;0.70;99.90
21417;DHT22;10869;52.238;10.716;2023-03-01T20:08:24;0.70;99.90
21417;DHT22;10869;52.238;10.716;2023-03-01T20:10:50;0.70;99.90
21417;DHT22;10869;52.238;10.716;2023-03-01T20:13:16;0.60;99.90
21417;DHT22;10869;52.238;10.716;2023-03-01T20:15:45;0.60;99.90
21417;DHT22;10869;52.238;10.716;2023-03-01T20:18:11;0.60;99.90
21417;DHT22;10869;52.238;10.716;2023-03-01T20:20:38;0.50;99.90
21417;DHT22;10869;52.238;10.716;2023-03-01T20:23:04;0.50;99.90
21417;DHT22;10869;52.238;10.716;2023-03-01T20:28:53;0.40;99.90
21417;DHT22;10869;52.238;10.716;2023-03-01T20:34:41;0.30;99.90
21417;DHT22;10869;52.238;10.716;2023-03-01T20:40:28;0.30;99.90
21417;DHT22;10869;52.238;10.716;2023-03-01T20:42:56;0.40;99.90
21417;DHT22;10869;52.238;10.716;2023-03-01T20:45:22;0.40;99.90
21417;DHT22;10869;52.238;10.716;2023-03-01T20:51:11;0.40;99.90
21417;DHT22;10869;52.238;10.716;2023-03-01T20:53:37;0.40;99.90
21417;DHT22;10869;52.238;10.716;2023-03-01T20:56:07;0.50;99.90
21417;DHT22;10869;52.238;10.716;2023-03-01T20:58:34;0.50;99.90
21417;DHT22;10869;52.238;10.716;2023-03-01T21:01:02;0.50;99.90
21417;DHT22;10869;52.238;10.716;2023-03-01T21:03:28;0.50;99.90
21417;DHT22;10869;52.238;10.716;2023-03-01T21:05:55;0.50;99.90
21417;DHT22;10869;52.238;10.716;2023-03-01T21:08:21;0.50;99.90
21417;DHT22;10869;52.238;10.716;2023-03-01T21:10:51;0.50;99.90
21417;DHT22;10869;52.238;10.716;2023-03-01T21:13:17;0.50;99.90
21417;DHT22;10869;52.238;10.716;2023-03-01T21:16:05;0.50;99.90
21417;DHT22;10869;52.238;10.716;2023-03-01T21:18:33;0.50;99.90
21417;DHT22;10869;52.238;10.716;2023-03-01T21:21:11;0.50;99.90
21417;DHT22;10869;52.238;10.716;2023-03-01T21:23:39;0.40;99.90
21417;DHT22;10869;52.238;10.716;2023-03-01T21:28:39;0.40;99.90
21417;DHT22;10869;52.238;10.716;2023-03-01T21:31:09;0.40;99.90
21417;DHT22;10869;52.238;10.716;2023-03-01T21:33:37;0.40;99.90
21417;DHT22;10869;52.238;10.716;2023-03-01T21:36:06;0.40;99.90
21417;DHT22;10869;52.238;10.716;2023-03-01T21:38:34;0.30;99.90
21417;DHT22;10869;52.238;10.716;2023-03-01T21:41:10;0.30;99.90
21417;DHT22;10869;52.238;10.716;2023-03-01T21:46:58;0.10;99.90
21417;DHT22;10869;52.238;10.716;2023-03-01T21:49:25;0.00;99.90
21417;DHT22;10869;52.238;10.716;2023-03-01T21:51:51;-0.10;99.90
21417;DHT22;10869;52.238;10.716;2023-03-01T21:54:18;-0.10;99.90
21417;DHT22;10869;52.238;10.716;2023-03-01T21:56:44;0.00;99.90
21417;DHT22;10869;52.238;10.716;2023-03-01T21:59:14;0.00;99.90
21417;DHT22;10869;52.238;10.716;2023-03-01T22:01:43;-0.10;99.90
21417;DHT22;10869;52.238;10.716;2023-03-01T22:04:08;-0.20;99.90
21417;DHT22;10869;52.238;10.716;2023-03-01T22:06:42;-0.20;99.90
21417;DHT22;10869;52.238;10.716;2023-03-01T22:09:19;-0.40;99.90
21417;DHT22;10869;52.238;10.716;2023-03-01T22:11:51;-0.50;99.90
21417;DHT22;10869;52.238;10.716;2023-03-01T22:14:19;-0.60;99.90
21417;DHT22;10869;52.238;10.716;2023-03-01T22:16:46;-0.60;99.90
21417;DHT22;10869;52.238;10.716;2023-03-01T22:19:14;-0.70;99.90
21417;DHT22;10869;52.238;10.716;2023-03-01T22:21:41;-0.70;99.90
21417;DHT22;10869;52.238;10.716;2023-03-01T22:24:08;-0.80;99.90
21417;DHT22;10869;52.238;10.716;2023-03-01T22:26:39;-0.70;99.90
21417;DHT22;10869;52.238;10.716;2023-03-01T22:29:11;-0.70;99.90
21417;DHT22;10869;52.238;10.716;2023-03-01T22:31:41;-0.60;99.90
21417;DHT22;10869;52.238;10.716;2023-03-01T22:34:08;-0.50;99.90
21417;DHT22;10869;52.238;10.716;2023-03-01T22:36:38;-0.30;99.90
21417;DHT22;10869;52.238;10.716;2023-03-01T22:39:07;-0.20;99.90
21417;DHT22;10869;52.238;10.716;2023-03-01T22:41:38;-0.20;99.90
21417;DHT22;10869;52.238;10.716;2023-03-01T22:44:10;-0.20;99.90
21417;DHT22;10869;52.238;10.716;2023-03-01T22:46:36;-0.20;99.90
21417;DHT22;10869;52.238;10.716;2023-03-01T22:49:13;-0.30;99.90
21417;DHT22;10869;52.238;10.716;2023-03-01T22:51:40;-0.30;99.90
21417;DHT22;10869;52.238;10.716;2023-03-01T22:57:28;-0.40;99.90
21417;DHT22;10869;52.238;10.716;2023-03-01T23:03:17;-0.60;99.90
21417;DHT22;10869;52.238;10.716;2023-03-01T23:05:42;-0.70;99.90
21417;DHT22;10869;52.238;10.716;2023-03-01T23:08:08;-0.80;99.90
21417;DHT22;10869;52.238;10.716;2023-03-01T23:10:39;-0.90;99.90
21417;DHT22;10869;52.238;10.716;2023-03-01T23:13:05;-1.00;99.90
21417;DHT22;10869;52.238;10.716;2023-03-01T23:15:30;-1.00;99.90
21417;DHT22;10869;52.238;10.716;2023-03-01T23:17:56;-1.10;99.90
21417;DHT22;10869;52.238;10.716;2023-03-01T23:20:22;-1.10;99.90
21417;DHT22;10869;52.238;10.716;2023-03-01T23:22:48;-1.20;99.90
21417;DHT22;10869;52.238;10.716;2023-03-01T23:25:14;-1.20;99.90
21417;DHT22;10869;52.238;10.716;2023-03-01T23:27:40;-1.30;99.90
21417;DHT22;10869;52.238;10.716;2023-03-01T23:30:07;-1.30;99.90
21417;DHT22;10869;52.238;10.716;2023-03-01T23:32:34;-1.30;99.90
21417;DHT22;10869;52.238;10.716;2023-03-01T23:35:06;-1.20;99.90
21417;DHT22;10869;52.238;10.716;2023-03-01T23:37:32;-1.20;99.90
21417;DHT22;10869;52.238;10.716;2023-03-01T23:39:58;-1.10;99.90
21417;DHT22;10869;52.238;10.716;2023-03-01T23:42:24;-1.10;99.90
21417;DHT22;10869;52.238;10.716;2023-03-01T23:44:49;-1.00;99.90
21417;DHT22;10869;52.238;10.716;2023-03-01T23:47:15;-1.00;99.90
21417;DHT22;10869;52.238;10.716;2023-03-01T23:49:41;-1.00;99.90
21417;DHT22;10869;52.238;10.716;2023-03-01T23:52:11;-1.00;99.90
21417;DHT22;10869;52.238;10.716;2023-03-01T23:54:37;-1.00;99.90
21417;DHT22;10869;52.238;10.716;2023-03-01T23:57:03;-1.00;99.90
21417;DHT22;10869;52.238;10.716;2023-03-01T23:59:29;-1.00;99.90
